sensor_id;sensor_type;location;lat;lon;timestamp;P1;durP1;ratioP1;P2;durP2;ratioP2
64011;SDS011;50211;52.768;12.124;2022-10-30T00:00:27;18.58;;;7.32;;
64011;SDS011;50211;52.768;12.124;2022-10-30T00:02:53;13.73;;;8.20;;
64011;SDS011;50211;52.768;12.124;2022-10-30T00:05:19;13.23;;;7.63;;
64011;SDS011;50211;52.768;12.124;2022-10-30T00:07:45;12.82;;;8.02;;
64011;SDS011;50211;52.768;12.124;2022-10-30T00:10:14;15.32;;;8.75;;
64011;SDS011;50211;52.768;12.124;2022-10-30T00:12:40;14.10;;;8.77;;
64011;SDS011;50211;52.768;12.124;2022-10-30T00:15:06;16.27;;;8.38;;
64011;SDS011;50211;52.768;12.124;2022-10-30T00:17:32;13.43;;;8.25;;
64011;SDS011;50211;52.768;12.124;2022-10-30T00:19:58;10.85;;;8.18;;
64011;SDS011;50211;52.768;12.124;2022-10-30T00:22:23;13.63;;;7.55;;
64011;SDS011;50211;52.768;12.124;2022-10-30T00:24:49;9.35;;;7.03;;
64011;SDS011;50211;52.768;12.124;2022-10-30T00:27:15;8.73;;;6.55;;
64011;SDS011;50211;52.768;12.124;2022-10-30T00:29:40;10.85;;;6.95;;
64011;SDS011;50211;52.768;12.124;2022-10-30T00:32:06;14.30;;;8.82;;
64011;SDS011;50211;52.768;12.124;2022-10-30T00:34:31;11.57;;;8.05;;
64011;SDS011;50211;52.768;12.124;2022-10-30T00:36:57;14.52;;;8.30;;
64011;SDS011;50211;52.768;12.124;2022-10-30T00:39:22;15.85;;;8.02;;
64011;SDS011;50211;52.768;12.124;2022-10-30T00:41:48;10.40;;;8.00;;
64011;SDS011;50211;52.768;12.124;2022-10-30T00:47:00;10.63;;;8.10;;
64011;SDS011;50211;52.768;12.124;2022-10-30T00:49:30;14.73;;;8.45;;
64011;SDS011;50211;52.768;12.124;2022-10-30T00:52:03;16.63;;;8.55;;
64011;SDS011;50211;52.768;12.124;2022-10-30T00:54:32;10.95;;;8.38;;
64011;SDS011;50211;52.768;12.124;2022-10-30T00:56:59;12.65;;;8.90;;
64011;SDS011;50211;52.768;12.124;2022-10-30T00:59:27;14.80;;;8.88;;
64011;SDS011;50211;52.768;12.124;2022-10-30T01:01:56;16.17;;;8.70;;
64011;SDS011;50211;52.768;12.124;2022-10-30T01:04:22;16.25;;;8.45;;
64011;SDS011;50211;52.768;12.124;2022-10-30T01:06:49;11.40;;;7.93;;
64011;SDS011;50211;52.768;12.124;2022-10-30T01:09:16;12.52;;;8.43;;
64011;SDS011;50211;52.768;12.124;2022-10-30T01:11:43;17.85;;;7.80;;
64011;SDS011;50211;52.768;12.124;2022-10-30T01:14:09;10.88;;;7.68;;
64011;SDS011;50211;52.768;12.124;2022-10-30T01:16:43;46.03;;;9.15;;
64011;SDS011;50211;52.768;12.124;2022-10-30T01:19:17;36.20;;;8.45;;
64011;SDS011;50211;52.768;12.124;2022-10-30T01:22:05;35.63;;;8.88;;
64011;SDS011;50211;52.768;12.124;2022-10-30T01:24:48;36.13;;;9.40;;
64011;SDS011;50211;52.768;12.124;2022-10-30T01:27:43;20.58;;;8.65;;
64011;SDS011;50211;52.768;12.124;2022-10-30T01:33:17;11.30;;;8.10;;
64011;SDS011;50211;52.768;12.124;2022-10-30T01:36:17;27.90;;;9.15;;
64011;SDS011;50211;52.768;12.124;2022-10-30T01:38:57;23.98;;;8.93;;
64011;SDS011;50211;52.768;12.124;2022-10-30T01:41:26;16.58;;;8.95;;
64011;SDS011;50211;52.768;12.124;2022-10-30T01:43:53;37.33;;;8.32;;
64011;SDS011;50211;52.768;12.124;2022-10-30T01:57:39;31.38;;;8.68;;
64011;SDS011;50211;52.768;12.124;2022-10-30T02:00:14;25.08;;;8.15;;
64011;SDS011;50211;52.768;12.124;2022-10-30T02:02:41;29.65;;;8.85;;
64011;SDS011;50211;52.768;12.124;2022-10-30T02:05:07;17.80;;;8.20;;
64011;SDS011;50211;52.768;12.124;2022-10-30T02:07:35;9.70;;;7.78;;
64011;SDS011;50211;52.768;12.124;2022-10-30T02:10:02;10.98;;;8.65;;
64011;SDS011;50211;52.768;12.124;2022-10-30T02:12:28;15.05;;;9.70;;
64011;SDS011;50211;52.768;12.124;2022-10-30T02:14:55;16.20;;;9.35;;
64011;SDS011;50211;52.768;12.124;2022-10-30T02:17:23;12.85;;;8.75;;
64011;SDS011;50211;52.768;12.124;2022-10-30T02:19:49;20.30;;;8.85;;
64011;SDS011;50211;52.768;12.124;2022-10-30T02:22:15;14.77;;;7.95;;
64011;SDS011;50211;52.768;12.124;2022-10-30T02:24:41;14.57;;;8.70;;
64011;SDS011;50211;52.768;12.124;2022-10-30T02:27:08;13.98;;;8.40;;
64011;SDS011;50211;52.768;12.124;2022-10-30T02:29:33;11.38;;;8.40;;
64011;SDS011;50211;52.768;12.124;2022-10-30T02:31:59;14.98;;;8.20;;
64011;SDS011;50211;52.768;12.124;2022-10-30T02:34:24;12.48;;;7.93;;
64011;SDS011;50211;52.768;12.124;2022-10-30T02:36:50;10.18;;;7.93;;
64011;SDS011;50211;52.768;12.124;2022-10-30T02:39:15;11.80;;;7.78;;
64011;SDS011;50211;52.768;12.124;2022-10-30T02:41:40;11.27;;;7.75;;
64011;SDS011;50211;52.768;12.124;2022-10-30T02:44:06;12.27;;;7.93;;
64011;SDS011;50211;52.768;12.124;2022-10-30T02:46:32;15.93;;;9.43;;
64011;SDS011;50211;52.768;12.124;2022-10-30T02:48:58;14.32;;;8.93;;
64011;SDS011;50211;52.768;12.124;2022-10-30T02:51:23;20.02;;;10.60;;
64011;SDS011;50211;52.768;12.124;2022-10-30T02:53:49;23.27;;;11.65;;
64011;SDS011;50211;52.768;12.124;2022-10-30T02:56:14;21.15;;;11.65;;
64011;SDS011;50211;52.768;12.124;2022-10-30T02:58:40;20.42;;;10.82;;
64011;SDS011;50211;52.768;12.124;2022-10-30T03:01:07;21.38;;;12.10;;
64011;SDS011;50211;52.768;12.124;2022-10-30T03:03:34;21.13;;;11.48;;
64011;SDS011;50211;52.768;12.124;2022-10-30T03:06:00;20.35;;;11.25;;
64011;SDS011;50211;52.768;12.124;2022-10-30T03:08:31;18.67;;;11.15;;
64011;SDS011;50211;52.768;12.124;2022-10-30T03:11:00;18.02;;;10.52;;
64011;SDS011;50211;52.768;12.124;2022-10-30T03:13:28;19.25;;;10.77;;
64011;SDS011;50211;52.768;12.124;2022-10-30T03:16:02;16.58;;;11.23;;
64011;SDS011;50211;52.768;12.124;2022-10-30T03:18:29;22.27;;;10.80;;
64011;SDS011;50211;52.768;12.124;2022-10-30T03:20:56;19.65;;;10.77;;
64011;SDS011;50211;52.768;12.124;2022-10-30T03:23:22;18.55;;;10.05;;
64011;SDS011;50211;52.768;12.124;2022-10-30T03:25:50;15.38;;;10.18;;
64011;SDS011;50211;52.768;12.124;2022-10-30T03:28:23;24.08;;;10.73;;
64011;SDS011;50211;52.768;12.124;2022-10-30T03:30:51;24.75;;;12.27;;
64011;SDS011;50211;52.768;12.124;2022-10-30T03:33:22;22.48;;;11.43;;
64011;SDS011;50211;52.768;12.124;2022-10-30T03:35:48;21.70;;;12.00;;
64011;SDS011;50211;52.768;12.124;2022-10-30T03:38:13;26.08;;;12.90;;
64011;SDS011;50211;52.768;12.124;2022-10-30T03:40:39;20.30;;;13.07;;
64011;SDS011;50211;52.768;12.124;2022-10-30T03:43:05;25.02;;;13.20;;
64011;SDS011;50211;52.768;12.124;2022-10-30T03:45:31;24.15;;;13.43;;
64011;SDS011;50211;52.768;12.124;2022-10-30T03:47:59;20.13;;;12.30;;
64011;SDS011;50211;52.768;12.124;2022-10-30T03:50:25;25.48;;;12.60;;
64011;SDS011;50211;52.768;12.124;2022-10-30T03:52:52;26.58;;;14.00;;
64011;SDS011;50211;52.768;12.124;2022-10-30T03:55:18;23.73;;;12.95;;
64011;SDS011;50211;52.768;12.124;2022-10-30T03:57:43;29.95;;;14.63;;
64011;SDS011;50211;52.768;12.124;2022-10-30T04:00:09;21.90;;;12.00;;
64011;SDS011;50211;52.768;12.124;2022-10-30T04:02:35;28.23;;;13.65;;
64011;SDS011;50211;52.768;12.124;2022-10-30T04:05:01;21.80;;;12.18;;
64011;SDS011;50211;52.768;12.124;2022-10-30T04:07:27;16.65;;;10.40;;
64011;SDS011;50211;52.768;12.124;2022-10-30T04:09:53;18.30;;;11.10;;
64011;SDS011;50211;52.768;12.124;2022-10-30T04:12:19;23.88;;;11.75;;
64011;SDS011;50211;52.768;12.124;2022-10-30T04:14:44;21.95;;;12.10;;
64011;SDS011;50211;52.768;12.124;2022-10-30T04:17:10;25.98;;;12.15;;
64011;SDS011;50211;52.768;12.124;2022-10-30T04:19:35;22.92;;;12.55;;
64011;SDS011;50211;52.768;12.124;2022-10-30T04:22:01;17.40;;;11.55;;
64011;SDS011;50211;52.768;12.124;2022-10-30T04:24:26;20.83;;;11.52;;
64011;SDS011;50211;52.768;12.124;2022-10-30T04:26:52;21.13;;;11.57;;
64011;SDS011;50211;52.768;12.124;2022-10-30T04:29:17;18.35;;;10.80;;
64011;SDS011;50211;52.768;12.124;2022-10-30T04:31:43;18.95;;;11.52;;
64011;SDS011;50211;52.768;12.124;2022-10-30T04:34:08;18.27;;;11.00;;
64011;SDS011;50211;52.768;12.124;2022-10-30T04:36:34;22.45;;;11.52;;
64011;SDS011;50211;52.768;12.124;2022-10-30T04:39:00;20.13;;;12.13;;
64011;SDS011;50211;52.768;12.124;2022-10-30T04:41:26;17.95;;;11.05;;
64011;SDS011;50211;52.768;12.124;2022-10-30T04:43:51;22.75;;;10.93;;
64011;SDS011;50211;52.768;12.124;2022-10-30T04:46:17;18.98;;;11.00;;
64011;SDS011;50211;52.768;12.124;2022-10-30T04:48:43;17.40;;;11.52;;
64011;SDS011;50211;52.768;12.124;2022-10-30T04:51:09;15.43;;;10.63;;
64011;SDS011;50211;52.768;12.124;2022-10-30T04:53:35;25.52;;;12.05;;
64011;SDS011;50211;52.768;12.124;2022-10-30T04:56:02;17.17;;;11.20;;
64011;SDS011;50211;52.768;12.124;2022-10-30T04:58:28;22.15;;;12.38;;
64011;SDS011;50211;52.768;12.124;2022-10-30T05:00:53;19.38;;;12.32;;
64011;SDS011;50211;52.768;12.124;2022-10-30T05:03:20;21.90;;;12.38;;
64011;SDS011;50211;52.768;12.124;2022-10-30T05:05:47;22.60;;;12.20;;
64011;SDS011;50211;52.768;12.124;2022-10-30T05:08:19;17.17;;;10.82;;
64011;SDS011;50211;52.768;12.124;2022-10-30T05:10:44;20.25;;;11.48;;
64011;SDS011;50211;52.768;12.124;2022-10-30T05:13:10;22.10;;;12.20;;
64011;SDS011;50211;52.768;12.124;2022-10-30T05:15:36;25.33;;;11.93;;
64011;SDS011;50211;52.768;12.124;2022-10-30T05:18:01;18.05;;;11.23;;
64011;SDS011;50211;52.768;12.124;2022-10-30T05:20:27;29.52;;;12.13;;
64011;SDS011;50211;52.768;12.124;2022-10-30T05:22:56;17.75;;;11.55;;
64011;SDS011;50211;52.768;12.124;2022-10-30T05:25:23;20.23;;;11.63;;
64011;SDS011;50211;52.768;12.124;2022-10-30T05:27:49;21.95;;;12.15;;
64011;SDS011;50211;52.768;12.124;2022-10-30T05:30:14;27.23;;;11.90;;
64011;SDS011;50211;52.768;12.124;2022-10-30T05:32:40;21.92;;;10.65;;
64011;SDS011;50211;52.768;12.124;2022-10-30T05:35:06;16.80;;;10.32;;
64011;SDS011;50211;52.768;12.124;2022-10-30T05:37:31;16.67;;;10.45;;
64011;SDS011;50211;52.768;12.124;2022-10-30T05:39:57;16.27;;;9.52;;
64011;SDS011;50211;52.768;12.124;2022-10-30T05:42:22;16.48;;;10.43;;
64011;SDS011;50211;52.768;12.124;2022-10-30T05:44:48;16.40;;;9.63;;
64011;SDS011;50211;52.768;12.124;2022-10-30T05:47:13;14.65;;;9.20;;
64011;SDS011;50211;52.768;12.124;2022-10-30T05:49:39;16.38;;;9.88;;
64011;SDS011;50211;52.768;12.124;2022-10-30T05:52:04;18.23;;;9.38;;
64011;SDS011;50211;52.768;12.124;2022-10-30T05:54:30;15.80;;;10.07;;
64011;SDS011;50211;52.768;12.124;2022-10-30T05:56:56;16.23;;;10.48;;
64011;SDS011;50211;52.768;12.124;2022-10-30T05:59:22;16.88;;;9.77;;
64011;SDS011;50211;52.768;12.124;2022-10-30T06:01:47;17.63;;;10.15;;
64011;SDS011;50211;52.768;12.124;2022-10-30T06:04:13;18.40;;;10.57;;
64011;SDS011;50211;52.768;12.124;2022-10-30T06:06:38;14.30;;;10.32;;
64011;SDS011;50211;52.768;12.124;2022-10-30T06:09:04;15.38;;;9.15;;
64011;SDS011;50211;52.768;12.124;2022-10-30T06:11:29;12.23;;;8.93;;
64011;SDS011;50211;52.768;12.124;2022-10-30T06:13:55;16.23;;;9.10;;
64011;SDS011;50211;52.768;12.124;2022-10-30T06:16:20;17.30;;;9.05;;
64011;SDS011;50211;52.768;12.124;2022-10-30T06:18:46;12.15;;;9.35;;
64011;SDS011;50211;52.768;12.124;2022-10-30T06:21:11;14.70;;;9.82;;
64011;SDS011;50211;52.768;12.124;2022-10-30T06:23:37;15.65;;;8.93;;
64011;SDS011;50211;52.768;12.124;2022-10-30T06:26:02;15.98;;;9.88;;
64011;SDS011;50211;52.768;12.124;2022-10-30T06:28:28;18.63;;;8.60;;
64011;SDS011;50211;52.768;12.124;2022-10-30T06:30:53;13.13;;;8.32;;
64011;SDS011;50211;52.768;12.124;2022-10-30T06:33:19;8.50;;;6.68;;
64011;SDS011;50211;52.768;12.124;2022-10-30T06:35:46;9.38;;;5.97;;
64011;SDS011;50211;52.768;12.124;2022-10-30T06:38:13;7.00;;;6.15;;
64011;SDS011;50211;52.768;12.124;2022-10-30T06:40:40;7.40;;;5.72;;
64011;SDS011;50211;52.768;12.124;2022-10-30T06:43:05;8.15;;;5.70;;
64011;SDS011;50211;52.768;12.124;2022-10-30T06:45:31;6.32;;;5.53;;
64011;SDS011;50211;52.768;12.124;2022-10-30T06:47:58;5.55;;;4.38;;
64011;SDS011;50211;52.768;12.124;2022-10-30T06:50:25;6.45;;;4.75;;
64011;SDS011;50211;52.768;12.124;2022-10-30T06:52:50;5.10;;;3.92;;
64011;SDS011;50211;52.768;12.124;2022-10-30T06:55:16;9.30;;;4.80;;
64011;SDS011;50211;52.768;12.124;2022-10-30T06:57:42;6.72;;;4.00;;
64011;SDS011;50211;52.768;12.124;2022-10-30T07:00:07;4.95;;;4.45;;
64011;SDS011;50211;52.768;12.124;2022-10-30T07:02:33;8.85;;;4.82;;
64011;SDS011;50211;52.768;12.124;2022-10-30T07:04:59;7.25;;;4.38;;
64011;SDS011;50211;52.768;12.124;2022-10-30T07:07:24;8.43;;;5.13;;
64011;SDS011;50211;52.768;12.124;2022-10-30T07:09:50;6.75;;;4.93;;
64011;SDS011;50211;52.768;12.124;2022-10-30T07:12:15;4.82;;;4.20;;
64011;SDS011;50211;52.768;12.124;2022-10-30T07:14:41;6.13;;;4.60;;
64011;SDS011;50211;52.768;12.124;2022-10-30T07:17:07;7.13;;;5.63;;
64011;SDS011;50211;52.768;12.124;2022-10-30T07:19:32;13.85;;;7.43;;
64011;SDS011;50211;52.768;12.124;2022-10-30T07:21:59;11.68;;;7.05;;
64011;SDS011;50211;52.768;12.124;2022-10-30T07:24:25;14.13;;;8.35;;
64011;SDS011;50211;52.768;12.124;2022-10-30T07:26:50;14.85;;;8.38;;
64011;SDS011;50211;52.768;12.124;2022-10-30T07:29:16;19.35;;;9.60;;
64011;SDS011;50211;52.768;12.124;2022-10-30T07:31:41;18.50;;;10.52;;
64011;SDS011;50211;52.768;12.124;2022-10-30T07:34:07;20.42;;;9.77;;
64011;SDS011;50211;52.768;12.124;2022-10-30T07:36:33;22.25;;;10.43;;
64011;SDS011;50211;52.768;12.124;2022-10-30T07:38:58;22.05;;;10.40;;
64011;SDS011;50211;52.768;12.124;2022-10-30T07:41:23;19.30;;;10.20;;
64011;SDS011;50211;52.768;12.124;2022-10-30T07:43:49;21.42;;;10.02;;
64011;SDS011;50211;52.768;12.124;2022-10-30T07:46:14;23.00;;;10.57;;
64011;SDS011;50211;52.768;12.124;2022-10-30T07:48:40;16.75;;;10.32;;
64011;SDS011;50211;52.768;12.124;2022-10-30T07:51:05;25.25;;;10.20;;
64011;SDS011;50211;52.768;12.124;2022-10-30T07:53:31;18.83;;;9.80;;
64011;SDS011;50211;52.768;12.124;2022-10-30T07:55:57;22.25;;;9.27;;
64011;SDS011;50211;52.768;12.124;2022-10-30T07:58:22;17.33;;;9.02;;
64011;SDS011;50211;52.768;12.124;2022-10-30T08:00:48;18.02;;;8.90;;
64011;SDS011;50211;52.768;12.124;2022-10-30T08:03:14;17.98;;;9.68;;
64011;SDS011;50211;52.768;12.124;2022-10-30T08:05:39;16.98;;;8.95;;
64011;SDS011;50211;52.768;12.124;2022-10-30T08:08:05;11.35;;;8.10;;
64011;SDS011;50211;52.768;12.124;2022-10-30T08:10:32;12.15;;;8.02;;
64011;SDS011;50211;52.768;12.124;2022-10-30T08:12:58;15.90;;;7.82;;
64011;SDS011;50211;52.768;12.124;2022-10-30T08:15:24;14.73;;;7.97;;
64011;SDS011;50211;52.768;12.124;2022-10-30T08:17:49;12.77;;;8.10;;
64011;SDS011;50211;52.768;12.124;2022-10-30T08:20:16;12.57;;;7.72;;
64011;SDS011;50211;52.768;12.124;2022-10-30T08:25:12;22.17;;;11.32;;
64011;SDS011;50211;52.768;12.124;2022-10-30T08:27:38;13.85;;;7.53;;
64011;SDS011;50211;52.768;12.124;2022-10-30T08:30:03;13.65;;;7.90;;
64011;SDS011;50211;52.768;12.124;2022-10-30T08:32:29;16.98;;;8.05;;
64011;SDS011;50211;52.768;12.124;2022-10-30T08:34:54;11.32;;;7.57;;
64011;SDS011;50211;52.768;12.124;2022-10-30T08:37:20;16.48;;;7.03;;
64011;SDS011;50211;52.768;12.124;2022-10-30T08:39:45;12.45;;;7.65;;
64011;SDS011;50211;52.768;12.124;2022-10-30T08:42:11;18.40;;;7.50;;
64011;SDS011;50211;52.768;12.124;2022-10-30T08:44:36;13.10;;;6.95;;
64011;SDS011;50211;52.768;12.124;2022-10-30T08:47:02;14.30;;;6.75;;
64011;SDS011;50211;52.768;12.124;2022-10-30T08:49:27;16.25;;;6.72;;
64011;SDS011;50211;52.768;12.124;2022-10-30T08:51:53;13.73;;;6.75;;
64011;SDS011;50211;52.768;12.124;2022-10-30T08:54:18;11.80;;;6.55;;
64011;SDS011;50211;52.768;12.124;2022-10-30T08:56:44;14.15;;;6.68;;
64011;SDS011;50211;52.768;12.124;2022-10-30T08:59:09;12.50;;;6.13;;
64011;SDS011;50211;52.768;12.124;2022-10-30T09:01:34;13.55;;;6.72;;
64011;SDS011;50211;52.768;12.124;2022-10-30T09:04:00;15.15;;;7.03;;
64011;SDS011;50211;52.768;12.124;2022-10-30T09:06:26;15.55;;;7.30;;
64011;SDS011;50211;52.768;12.124;2022-10-30T09:08:51;15.40;;;5.90;;
64011;SDS011;50211;52.768;12.124;2022-10-30T09:11:17;17.70;;;6.97;;
64011;SDS011;50211;52.768;12.124;2022-10-30T09:13:42;12.63;;;6.38;;
64011;SDS011;50211;52.768;12.124;2022-10-30T09:16:08;17.55;;;6.70;;
64011;SDS011;50211;52.768;12.124;2022-10-30T09:18:33;15.55;;;5.82;;
64011;SDS011;50211;52.768;12.124;2022-10-30T09:20:59;12.88;;;6.45;;
64011;SDS011;50211;52.768;12.124;2022-10-30T09:23:24;9.63;;;6.32;;
64011;SDS011;50211;52.768;12.124;2022-10-30T09:25:50;10.38;;;5.60;;
64011;SDS011;50211;52.768;12.124;2022-10-30T09:28:15;25.70;;;6.22;;
64011;SDS011;50211;52.768;12.124;2022-10-30T09:30:41;13.05;;;5.43;;
64011;SDS011;50211;52.768;12.124;2022-10-30T09:33:07;15.65;;;5.80;;
64011;SDS011;50211;52.768;12.124;2022-10-30T09:35:33;15.80;;;6.13;;
64011;SDS011;50211;52.768;12.124;2022-10-30T09:37:59;11.73;;;5.40;;
64011;SDS011;50211;52.768;12.124;2022-10-30T09:41:12;9.77;;;6.00;;
64011;SDS011;50211;52.768;12.124;2022-10-30T09:51:57;13.10;;;5.55;;
64011;SDS011;50211;52.768;12.124;2022-10-30T09:57:47;11.10;;;5.60;;
64011;SDS011;50211;52.768;12.124;2022-10-30T10:00:31;12.02;;;5.50;;
64011;SDS011;50211;52.768;12.124;2022-10-30T10:05:43;10.95;;;5.28;;
64011;SDS011;50211;52.768;12.124;2022-10-30T10:08:14;14.50;;;5.88;;
64011;SDS011;50211;52.768;12.124;2022-10-30T10:10:45;14.93;;;5.35;;
64011;SDS011;50211;52.768;12.124;2022-10-30T10:13:29;13.98;;;5.45;;
64011;SDS011;50211;52.768;12.124;2022-10-30T10:16:16;10.90;;;4.88;;
64011;SDS011;50211;52.768;12.124;2022-10-30T10:18:47;17.80;;;5.43;;
64011;SDS011;50211;52.768;12.124;2022-10-30T10:21:28;14.93;;;4.90;;
64011;SDS011;50211;52.768;12.124;2022-10-30T10:23:54;15.90;;;4.95;;
64011;SDS011;50211;52.768;12.124;2022-10-30T10:29:28;12.07;;;5.10;;
64011;SDS011;50211;52.768;12.124;2022-10-30T10:32:09;17.15;;;5.45;;
64011;SDS011;50211;52.768;12.124;2022-10-30T10:35:06;14.93;;;4.88;;
64011;SDS011;50211;52.768;12.124;2022-10-30T10:41:09;14.85;;;4.75;;
64011;SDS011;50211;52.768;12.124;2022-10-30T10:44:09;12.48;;;4.82;;
64011;SDS011;50211;52.768;12.124;2022-10-30T10:46:53;13.57;;;4.90;;
64011;SDS011;50211;52.768;12.124;2022-10-30T10:49:50;15.13;;;5.63;;
64011;SDS011;50211;52.768;12.124;2022-10-30T10:52:37;13.23;;;4.47;;
64011;SDS011;50211;52.768;12.124;2022-10-30T10:55:26;17.10;;;5.00;;
64011;SDS011;50211;52.768;12.124;2022-10-30T10:57:56;12.75;;;4.72;;
64011;SDS011;50211;52.768;12.124;2022-10-30T11:00:28;13.23;;;4.45;;
64011;SDS011;50211;52.768;12.124;2022-10-30T11:02:59;14.00;;;4.75;;
64011;SDS011;50211;52.768;12.124;2022-10-30T11:05:55;14.70;;;4.65;;
64011;SDS011;50211;52.768;12.124;2022-10-30T11:08:29;16.55;;;4.72;;
64011;SDS011;50211;52.768;12.124;2022-10-30T11:11:05;15.23;;;4.68;;
64011;SDS011;50211;52.768;12.124;2022-10-30T11:13:35;9.07;;;4.22;;
64011;SDS011;50211;52.768;12.124;2022-10-30T11:18:57;10.52;;;3.90;;
64011;SDS011;50211;52.768;12.124;2022-10-30T11:21:26;10.02;;;3.85;;
64011;SDS011;50211;52.768;12.124;2022-10-30T11:23:54;14.05;;;4.40;;
64011;SDS011;50211;52.768;12.124;2022-10-30T11:28:52;9.60;;;3.70;;
64011;SDS011;50211;52.768;12.124;2022-10-30T11:32:03;12.27;;;3.97;;
64011;SDS011;50211;52.768;12.124;2022-10-30T11:39:10;13.43;;;4.07;;
64011;SDS011;50211;52.768;12.124;2022-10-30T11:41:41;15.05;;;4.93;;
64011;SDS011;50211;52.768;12.124;2022-10-30T11:44:19;11.02;;;4.15;;
64011;SDS011;50211;52.768;12.124;2022-10-30T11:46:45;10.90;;;3.72;;
64011;SDS011;50211;52.768;12.124;2022-10-30T11:49:27;12.07;;;3.90;;
64011;SDS011;50211;52.768;12.124;2022-10-30T11:52:04;14.00;;;4.32;;
64011;SDS011;50211;52.768;12.124;2022-10-30T11:54:33;13.10;;;4.45;;
64011;SDS011;50211;52.768;12.124;2022-10-30T11:57:01;13.02;;;4.28;;
64011;SDS011;50211;52.768;12.124;2022-10-30T11:59:27;11.82;;;3.70;;
64011;SDS011;50211;52.768;12.124;2022-10-30T12:01:56;21.33;;;5.28;;
64011;SDS011;50211;52.768;12.124;2022-10-30T12:04:42;13.35;;;4.38;;
64011;SDS011;50211;52.768;12.124;2022-10-30T12:07:18;10.77;;;4.25;;
64011;SDS011;50211;52.768;12.124;2022-10-30T12:09:45;10.80;;;5.00;;
64011;SDS011;50211;52.768;12.124;2022-10-30T12:12:14;11.15;;;4.13;;
64011;SDS011;50211;52.768;12.124;2022-10-30T12:15:25;9.18;;;3.70;;
64011;SDS011;50211;52.768;12.124;2022-10-30T12:20:17;9.60;;;3.70;;
64011;SDS011;50211;52.768;12.124;2022-10-30T12:22:43;9.73;;;4.10;;
64011;SDS011;50211;52.768;12.124;2022-10-30T12:25:23;11.25;;;4.65;;
64011;SDS011;50211;52.768;12.124;2022-10-30T12:27:59;13.50;;;3.97;;
64011;SDS011;50211;52.768;12.124;2022-10-30T12:30:31;15.75;;;4.30;;
64011;SDS011;50211;52.768;12.124;2022-10-30T12:33:14;11.05;;;3.63;;
64011;SDS011;50211;52.768;12.124;2022-10-30T12:35:52;13.65;;;4.00;;
64011;SDS011;50211;52.768;12.124;2022-10-30T12:38:26;9.98;;;3.88;;
64011;SDS011;50211;52.768;12.124;2022-10-30T12:43:38;16.67;;;4.68;;
64011;SDS011;50211;52.768;12.124;2022-10-30T12:48:57;13.02;;;4.30;;
64011;SDS011;50211;52.768;12.124;2022-10-30T12:51:48;9.20;;;3.90;;
64011;SDS011;50211;52.768;12.124;2022-10-30T12:57:02;11.85;;;3.50;;
64011;SDS011;50211;52.768;12.124;2022-10-30T12:59:41;12.73;;;3.40;;
64011;SDS011;50211;52.768;12.124;2022-10-30T13:07:49;7.72;;;3.47;;
64011;SDS011;50211;52.768;12.124;2022-10-30T13:13:36;11.07;;;4.15;;
64011;SDS011;50211;52.768;12.124;2022-10-30T13:16:07;11.63;;;4.10;;
64011;SDS011;50211;52.768;12.124;2022-10-30T13:18:39;8.45;;;3.78;;
64011;SDS011;50211;52.768;12.124;2022-10-30T13:21:14;12.25;;;4.05;;
64011;SDS011;50211;52.768;12.124;2022-10-30T13:24:09;7.90;;;3.60;;
64011;SDS011;50211;52.768;12.124;2022-10-30T13:26:55;14.00;;;4.88;;
64011;SDS011;50211;52.768;12.124;2022-10-30T13:29:33;13.63;;;5.30;;
64011;SDS011;50211;52.768;12.124;2022-10-30T13:37:46;12.50;;;3.85;;
64011;SDS011;50211;52.768;12.124;2022-10-30T13:40:20;12.25;;;4.18;;
64011;SDS011;50211;52.768;12.124;2022-10-30T13:45:35;13.52;;;4.53;;
64011;SDS011;50211;52.768;12.124;2022-10-30T13:48:15;11.98;;;4.32;;
64011;SDS011;50211;52.768;12.124;2022-10-30T13:53:47;15.27;;;4.20;;
64011;SDS011;50211;52.768;12.124;2022-10-30T13:56:18;14.55;;;4.35;;
64011;SDS011;50211;52.768;12.124;2022-10-30T13:59:02;28.27;;;5.70;;
64011;SDS011;50211;52.768;12.124;2022-10-30T14:04:18;11.00;;;4.35;;
64011;SDS011;50211;52.768;12.124;2022-10-30T14:06:58;13.35;;;4.38;;
64011;SDS011;50211;52.768;12.124;2022-10-30T14:13:04;7.05;;;3.88;;
64011;SDS011;50211;52.768;12.124;2022-10-30T14:15:42;6.30;;;3.25;;
64011;SDS011;50211;52.768;12.124;2022-10-30T14:20:44;10.88;;;4.55;;
64011;SDS011;50211;52.768;12.124;2022-10-30T14:23:14;14.20;;;4.13;;
64011;SDS011;50211;52.768;12.124;2022-10-30T14:25:40;14.93;;;5.15;;
64011;SDS011;50211;52.768;12.124;2022-10-30T14:28:19;9.40;;;4.13;;
64011;SDS011;50211;52.768;12.124;2022-10-30T14:30:46;9.35;;;3.95;;
64011;SDS011;50211;52.768;12.124;2022-10-30T14:38:57;5.93;;;3.40;;
64011;SDS011;50211;52.768;12.124;2022-10-30T14:41:26;10.25;;;3.80;;
64011;SDS011;50211;52.768;12.124;2022-10-30T14:47:19;8.30;;;3.78;;
64011;SDS011;50211;52.768;12.124;2022-10-30T14:50:03;5.28;;;3.63;;
64011;SDS011;50211;52.768;12.124;2022-10-30T14:52:43;10.80;;;4.63;;
64011;SDS011;50211;52.768;12.124;2022-10-30T15:00:28;9.13;;;3.90;;
64011;SDS011;50211;52.768;12.124;2022-10-30T15:05:47;11.07;;;4.65;;
64011;SDS011;50211;52.768;12.124;2022-10-30T15:08:20;11.90;;;4.88;;
64011;SDS011;50211;52.768;12.124;2022-10-30T15:11:11;9.82;;;4.40;;
64011;SDS011;50211;52.768;12.124;2022-10-30T15:13:52;19.48;;;4.85;;
64011;SDS011;50211;52.768;12.124;2022-10-30T15:16:21;7.75;;;3.97;;
64011;SDS011;50211;52.768;12.124;2022-10-30T15:18:49;10.35;;;4.00;;
64011;SDS011;50211;52.768;12.124;2022-10-30T15:21:21;12.32;;;4.70;;
64011;SDS011;50211;52.768;12.124;2022-10-30T15:23:49;8.07;;;4.60;;
64011;SDS011;50211;52.768;12.124;2022-10-30T15:26:21;10.82;;;4.55;;
64011;SDS011;50211;52.768;12.124;2022-10-30T15:28:50;9.73;;;4.35;;
64011;SDS011;50211;52.768;12.124;2022-10-30T15:33:44;12.23;;;5.13;;
64011;SDS011;50211;52.768;12.124;2022-10-30T15:38:42;15.50;;;4.85;;
64011;SDS011;50211;52.768;12.124;2022-10-30T15:41:08;8.85;;;5.63;;
64011;SDS011;50211;52.768;12.124;2022-10-30T15:43:34;16.58;;;4.70;;
64011;SDS011;50211;52.768;12.124;2022-10-30T15:46:07;12.13;;;5.05;;
64011;SDS011;50211;52.768;12.124;2022-10-30T15:48:34;14.35;;;4.55;;
64011;SDS011;50211;52.768;12.124;2022-10-30T15:51:03;11.15;;;4.65;;
64011;SDS011;50211;52.768;12.124;2022-10-30T15:53:35;8.40;;;4.60;;
64011;SDS011;50211;52.768;12.124;2022-10-30T15:56:04;10.82;;;5.10;;
64011;SDS011;50211;52.768;12.124;2022-10-30T15:58:32;10.13;;;5.50;;
64011;SDS011;50211;52.768;12.124;2022-10-30T16:01:00;9.52;;;5.18;;
64011;SDS011;50211;52.768;12.124;2022-10-30T16:03:26;15.88;;;5.38;;
64011;SDS011;50211;52.768;12.124;2022-10-30T16:06:05;11.57;;;5.38;;
64011;SDS011;50211;52.768;12.124;2022-10-30T16:08:42;10.65;;;5.97;;
64011;SDS011;50211;52.768;12.124;2022-10-30T16:11:09;9.10;;;4.60;;
64011;SDS011;50211;52.768;12.124;2022-10-30T16:13:34;10.20;;;5.10;;
64011;SDS011;50211;52.768;12.124;2022-10-30T16:16:01;9.13;;;5.05;;
64011;SDS011;50211;52.768;12.124;2022-10-30T16:18:31;10.25;;;5.15;;
64011;SDS011;50211;52.768;12.124;2022-10-30T16:21:00;11.82;;;6.22;;
64011;SDS011;50211;52.768;12.124;2022-10-30T16:23:29;9.38;;;6.15;;
64011;SDS011;50211;52.768;12.124;2022-10-30T16:26:04;13.30;;;6.63;;